createdAt,value
2018-12-27T00:00:33.788Z,19.43
2018-12-27T00:03:02.825Z,17.93
2018-12-27T00:05:31.985Z,21.77
2018-12-27T00:08:01.205Z,19.43
2018-12-27T00:10:30.335Z,20.30
2018-12-27T00:12:59.341Z,19.33
2018-12-27T00:15:28.360Z,20.70
2018-12-27T00:17:57.521Z,21.17
2018-12-27T00:20:26.525Z,19.17
2018-12-27T00:22:55.562Z,19.93
2018-12-27T00:25:24.661Z,20.77
2018-12-27T00:27:53.589Z,18.60
2018-12-27T00:30:22.601Z,20.60
2018-12-27T00:32:51.700Z,19.00
2018-12-27T00:35:20.792Z,18.07
2018-12-27T00:37:49.809Z,18.30
2018-12-27T00:40:18.752Z,20.77
2018-12-27T00:42:48.070Z,16.00
2018-12-27T00:45:17.070Z,18.00
2018-12-27T00:47:46.136Z,20.90
2018-12-27T00:50:15.073Z,20.87
2018-12-27T00:52:44.169Z,18.50
2018-12-27T00:55:13.169Z,18.77
2018-12-27T00:57:42.090Z,19.03
2018-12-27T01:00:11.058Z,18.60
2018-12-27T01:02:40.176Z,17.97
2018-12-27T01:05:09.235Z,18.57
2018-12-27T01:07:38.342Z,18.90
2018-12-27T01:10:07.607Z,19.83
2018-12-27T01:12:36.705Z,19.93
2018-12-27T01:15:05.865Z,17.70
2018-12-27T01:17:34.896Z,19.30
2018-12-27T01:20:03.880Z,18.20
2018-12-27T01:22:32.850Z,19.57
2018-12-27T01:25:01.847Z,18.33
2018-12-27T01:27:30.899Z,19.67
2018-12-27T01:30:00.427Z,18.00
2018-12-27T01:32:29.439Z,20.73
2018-12-27T01:35:02.501Z,19.63
2018-12-27T01:37:31.567Z,17.60
2018-12-27T01:40:00.529Z,19.80
2018-12-27T01:42:29.550Z,18.60
2018-12-27T01:44:58.917Z,17.20
2018-12-27T01:47:28.098Z,16.97
2018-12-27T01:49:56.958Z,19.00
2018-12-27T01:52:26.077Z,17.70
2018-12-27T01:54:55.124Z,17.37
2018-12-27T01:57:24.275Z,17.73
2018-12-27T01:59:53.286Z,18.90
2018-12-27T02:02:25.484Z,17.53
2018-12-27T02:04:54.772Z,17.47
2018-12-27T02:07:23.877Z,18.83
2018-12-27T02:09:52.874Z,19.03
2018-12-27T02:12:21.928Z,19.43
2018-12-27T02:14:50.962Z,18.83
2018-12-27T02:17:19.857Z,17.70
2018-12-27T02:19:48.821Z,19.10
2018-12-27T02:22:17.790Z,17.57
2018-12-27T02:24:46.688Z,17.17
2018-12-27T02:27:15.580Z,18.47
2018-12-27T02:29:44.621Z,16.87
2018-12-27T02:32:13.641Z,19.90
2018-12-27T02:34:42.553Z,18.37
2018-12-27T02:37:11.656Z,19.70
2018-12-27T02:39:40.641Z,16.40
2018-12-27T02:42:09.580Z,21.10
2018-12-27T02:44:38.574Z,19.40
2018-12-27T02:47:07.477Z,17.40
2018-12-27T02:49:36.525Z,17.90
2018-12-27T02:52:05.458Z,18.13
2018-12-27T02:54:34.476Z,17.40
2018-12-27T02:57:03.469Z,18.40
2018-12-27T02:59:32.635Z,16.90
2018-12-27T03:02:01.659Z,18.07
2018-12-27T03:04:30.756Z,18.73
2018-12-27T03:06:59.767Z,17.90
2018-12-27T03:09:28.736Z,19.30
2018-12-27T03:11:57.730Z,15.57
2018-12-27T03:14:26.729Z,17.70
2018-12-27T03:16:55.897Z,15.80
2018-12-27T03:19:25.091Z,19.00
2018-12-27T03:21:54.035Z,19.83
2018-12-27T03:24:23.266Z,16.30
2018-12-27T03:26:52.093Z,18.63
2018-12-27T03:29:21.185Z,16.73
2018-12-27T03:31:50.081Z,16.07
2018-12-27T03:34:19.055Z,15.93
2018-12-27T03:36:48.116Z,16.97
2018-12-27T03:39:16.944Z,18.63
2018-12-27T03:41:45.885Z,17.00
2018-12-27T03:44:14.864Z,17.53
2018-12-27T03:46:43.682Z,21.20
2018-12-27T03:49:13.266Z,18.00
2018-12-27T03:51:42.100Z,20.37
2018-12-27T03:54:11.028Z,20.77
2018-12-27T03:56:40.034Z,16.80
2018-12-27T03:59:08.882Z,18.67
2018-12-27T04:01:37.947Z,17.50
2018-12-27T04:04:06.763Z,20.20
2018-12-27T04:06:35.778Z,17.03
2018-12-27T04:09:05.334Z,18.67
2018-12-27T04:11:34.163Z,21.63
2018-12-27T04:14:03.184Z,16.67
2018-12-27T04:16:32.162Z,15.40
2018-12-27T04:19:01.143Z,18.80
2018-12-27T04:21:30.113Z,19.13
2018-12-27T04:23:59.165Z,17.70
2018-12-27T04:26:30.206Z,18.10
2018-12-27T04:28:59.111Z,18.23
2018-12-27T04:31:28.388Z,18.63
2018-12-27T04:33:57.750Z,17.40
2018-12-27T04:36:26.907Z,18.57
2018-12-27T04:38:55.853Z,19.00
2018-12-27T04:41:24.749Z,16.57
2018-12-27T04:43:53.792Z,17.90
2018-12-27T04:46:22.763Z,17.00
2018-12-27T04:48:51.676Z,17.60
2018-12-27T04:51:20.952Z,19.20
2018-12-27T04:53:49.881Z,18.57
2018-12-27T04:56:18.826Z,20.07
2018-12-27T04:58:48.561Z,18.70
2018-12-27T05:01:17.534Z,20.07
2018-12-27T05:03:46.534Z,18.97
2018-12-27T05:06:15.448Z,17.43
2018-12-27T05:08:44.485Z,17.57
2018-12-27T05:11:13.314Z,16.97
2018-12-27T05:13:42.211Z,15.60
2018-12-27T05:16:11.092Z,15.47
2018-12-27T05:18:40.038Z,16.17
2018-12-27T05:21:09.035Z,13.80
2018-12-27T05:23:38.127Z,15.37
2018-12-27T05:26:07.055Z,14.53
2018-12-27T05:28:35.974Z,15.33
2018-12-27T05:31:05.015Z,13.77
2018-12-27T05:33:33.887Z,13.80
2018-12-27T05:36:02.879Z,14.80
2018-12-27T05:38:31.843Z,14.30
2018-12-27T05:41:00.860Z,14.87
2018-12-27T05:43:29.922Z,13.67
2018-12-27T05:45:58.934Z,15.73
2018-12-27T05:48:27.837Z,16.33
2018-12-27T05:50:56.819Z,16.93
2018-12-27T05:53:25.918Z,16.57
2018-12-27T05:55:55.071Z,16.40
2018-12-27T05:58:24.052Z,16.33
2018-12-27T06:00:52.992Z,16.23
2018-12-27T06:03:21.907Z,18.47
2018-12-27T06:05:51.819Z,16.00
2018-12-27T06:08:20.850Z,15.83
2018-12-27T06:10:49.821Z,17.90
2018-12-27T06:13:18.823Z,17.90
2018-12-27T06:15:47.771Z,16.97
2018-12-27T06:18:16.814Z,14.90
2018-12-27T06:20:45.794Z,17.37
2018-12-27T06:23:14.718Z,19.37
2018-12-27T06:25:43.758Z,18.27
2018-12-27T06:28:12.755Z,18.87
2018-12-27T06:30:41.669Z,17.43
2018-12-27T06:33:10.634Z,20.57
2018-12-27T06:35:39.614Z,19.93
2018-12-27T06:38:08.495Z,19.07
2018-12-27T06:40:37.371Z,18.17
2018-12-27T06:43:06.469Z,18.10
2018-12-27T06:45:35.611Z,18.67
2018-12-27T06:48:04.594Z,20.10
2018-12-27T06:50:33.454Z,19.13
2018-12-27T06:53:02.372Z,19.03
2018-12-27T06:55:31.234Z,20.47
2018-12-27T06:58:00.243Z,21.77
2018-12-27T07:00:29.356Z,19.90
2018-12-27T07:02:58.246Z,20.93
2018-12-27T07:05:27.190Z,19.07
2018-12-27T07:07:56.232Z,17.40
2018-12-27T07:10:25.182Z,17.40
2018-12-27T07:12:54.198Z,16.20
2018-12-27T07:15:25.046Z,17.37
2018-12-27T07:17:53.978Z,17.67
2018-12-27T07:20:22.967Z,17.30
2018-12-27T07:22:51.927Z,17.30
2018-12-27T07:25:20.890Z,16.43
2018-12-27T07:27:49.888Z,17.80
2018-12-27T07:30:18.927Z,16.40
2018-12-27T07:32:47.879Z,16.47
2018-12-27T07:35:16.739Z,13.33
2018-12-27T07:37:45.636Z,15.73
2018-12-27T07:40:14.630Z,15.40
2018-12-27T07:42:43.733Z,17.07
2018-12-27T07:45:12.566Z,15.30
2018-12-27T07:47:41.423Z,14.90
2018-12-27T07:50:10.755Z,15.17
2018-12-27T07:52:39.746Z,14.80
2018-12-27T07:55:08.802Z,16.00
2018-12-27T07:57:37.835Z,14.73
2018-12-27T08:00:07.087Z,15.67
2018-12-27T08:02:36.114Z,16.53
2018-12-27T08:05:05.135Z,14.80
2018-12-27T08:07:34.130Z,14.53
2018-12-27T08:10:03.139Z,16.20
2018-12-27T08:12:31.999Z,17.13
2018-12-27T08:15:05.018Z,16.00
2018-12-27T08:17:33.980Z,15.33
2018-12-27T08:20:03.095Z,14.83
2018-12-27T08:22:31.955Z,17.07
2018-12-27T08:25:00.899Z,13.80
2018-12-27T08:27:29.846Z,17.73
2018-12-27T08:29:58.842Z,17.83
2018-12-27T08:32:27.759Z,18.37
2018-12-27T08:34:56.779Z,14.17
2018-12-27T08:37:25.627Z,13.10
2018-12-27T08:39:54.638Z,15.90
2018-12-27T08:42:23.542Z,14.50
2018-12-27T08:44:52.557Z,17.93
2018-12-27T08:47:28.662Z,13.57
2018-12-27T08:50:01.110Z,14.10
2018-12-27T08:52:30.046Z,15.47
2018-12-27T08:54:58.971Z,14.30
2018-12-27T08:57:27.906Z,15.13
2018-12-27T08:59:56.846Z,14.90
2018-12-27T09:02:25.783Z,16.40
2018-12-27T09:04:54.667Z,17.60
2018-12-27T09:07:24.587Z,16.23
2018-12-27T09:09:53.618Z,13.63
2018-12-27T09:12:22.539Z,16.20
2018-12-27T09:14:51.459Z,16.57
2018-12-27T09:17:20.455Z,17.90
2018-12-27T09:19:49.547Z,15.27
2018-12-27T09:22:18.520Z,17.73
2018-12-27T09:24:47.428Z,16.30
2018-12-27T09:27:16.472Z,15.63
2018-12-27T09:29:45.363Z,15.80
2018-12-27T09:32:14.391Z,16.10
2018-12-27T09:34:43.304Z,15.67
2018-12-27T09:37:13.295Z,18.97
2018-12-27T09:39:42.192Z,16.83
2018-12-27T09:42:12.222Z,16.00
2018-12-27T09:44:41.463Z,16.20
2018-12-27T09:47:10.394Z,18.03
2018-12-27T09:49:39.272Z,18.87
2018-12-27T09:52:08.139Z,17.00
2018-12-27T09:54:37.095Z,17.97
2018-12-27T09:57:06.006Z,16.70
2018-12-27T09:59:35.014Z,16.13
2018-12-27T10:02:04.051Z,16.90
2018-12-27T10:04:33.074Z,13.77
2018-12-27T10:07:03.310Z,17.13
2018-12-27T10:09:32.354Z,16.37
2018-12-27T10:12:01.279Z,17.20
2018-12-27T10:14:30.163Z,17.20
2018-12-27T10:16:59.026Z,15.80
2018-12-27T10:19:28.074Z,15.90
2018-12-27T10:21:57.095Z,14.80
2018-12-27T10:24:26.047Z,13.73
2018-12-27T10:26:55.250Z,17.00
2018-12-27T10:29:24.282Z,15.23
2018-12-27T10:31:53.257Z,15.50
2018-12-27T10:34:22.224Z,12.90
2018-12-27T10:36:51.295Z,13.50
2018-12-27T10:39:20.347Z,15.57
2018-12-27T10:41:49.395Z,12.90
2018-12-27T10:44:18.327Z,12.50
2018-12-27T10:46:47.274Z,11.70
2018-12-27T10:49:16.436Z,12.40
2018-12-27T10:51:45.446Z,11.80
2018-12-27T10:54:14.421Z,12.80
2018-12-27T10:56:43.461Z,12.17
2018-12-27T10:59:12.357Z,13.47
2018-12-27T11:01:41.379Z,11.30
2018-12-27T11:04:10.280Z,12.13
2018-12-27T11:06:40.331Z,10.77
2018-12-27T11:09:09.598Z,12.10
2018-12-27T11:11:38.560Z,11.07
2018-12-27T11:14:07.538Z,12.73
2018-12-27T11:16:36.570Z,10.87
2018-12-27T11:19:05.596Z,11.93
2018-12-27T11:21:34.570Z,11.33
2018-12-27T11:24:03.446Z,10.97
2018-12-27T11:26:32.324Z,11.20
2018-12-27T11:29:02.340Z,10.67
2018-12-27T11:31:31.381Z,11.63
2018-12-27T11:34:01.504Z,10.13
2018-12-27T11:36:30.427Z,11.70
2018-12-27T11:39:01.430Z,10.63
2018-12-27T11:41:33.814Z,10.63
2018-12-27T11:44:02.805Z,10.13
2018-12-27T11:46:31.864Z,9.20
2018-12-27T11:49:01.007Z,10.90
2018-12-27T11:51:29.931Z,9.63
2018-12-27T11:53:58.846Z,10.07
2018-12-27T11:56:27.900Z,24.50
2018-12-27T11:59:06.358Z,10.70
2018-12-27T12:01:40.365Z,8.27
2018-12-27T12:04:12.605Z,9.23
2018-12-27T12:06:45.183Z,11.90
2018-12-27T12:09:14.236Z,9.67
2018-12-27T12:11:43.228Z,9.40
2018-12-27T12:14:12.187Z,9.33
2018-12-27T12:16:41.531Z,9.63
2018-12-27T12:19:10.479Z,9.27
2018-12-27T12:21:39.619Z,8.70
2018-12-27T12:24:08.567Z,10.00
2018-12-27T12:26:37.446Z,10.27
2018-12-27T12:29:07.264Z,10.50
2018-12-27T12:31:36.143Z,10.80
2018-12-27T12:34:05.195Z,9.83
2018-12-27T12:36:34.343Z,10.57
2018-12-27T12:39:07.606Z,9.90
2018-12-27T12:41:36.756Z,9.37
2018-12-27T12:44:05.735Z,9.97
2018-12-27T12:46:34.671Z,9.90
2018-12-27T12:49:07.770Z,9.57
2018-12-27T12:51:36.710Z,8.40
2018-12-27T12:54:05.728Z,9.63
2018-12-27T12:56:34.694Z,9.50
2018-12-27T12:59:07.739Z,10.27
2018-12-27T13:01:40.258Z,8.30
2018-12-27T13:04:09.342Z,11.37
2018-12-27T13:06:38.482Z,9.53
2018-12-27T13:09:17.464Z,9.23
2018-12-27T13:11:46.466Z,10.07
2018-12-27T13:14:15.442Z,9.93
2018-12-27T13:16:48.175Z,9.10
2018-12-27T13:19:17.307Z,8.43
2018-12-27T13:21:46.232Z,9.13
2018-12-27T13:24:15.179Z,8.27
2018-12-27T13:26:44.160Z,8.73
2018-12-27T13:29:13.143Z,10.03
2018-12-27T13:31:42.103Z,7.90
2018-12-27T13:34:11.043Z,7.90
2018-12-27T13:36:39.934Z,8.47
2018-12-27T13:39:09.954Z,10.80
2018-12-27T13:41:39.023Z,9.67
2018-12-27T13:44:08.035Z,9.63
2018-12-27T13:46:36.962Z,9.43
2018-12-27T13:49:06.023Z,7.60
2018-12-27T13:51:35.046Z,9.77
2018-12-27T13:54:04.110Z,9.03
2018-12-27T13:56:33.028Z,8.93
2018-12-27T13:59:02.031Z,8.27
2018-12-27T14:01:30.999Z,8.50
2018-12-27T14:04:00.316Z,8.27
2018-12-27T14:06:32.709Z,11.17
2018-12-27T14:09:00.114Z,9.30
2018-12-27T14:11:28.986Z,10.80
2018-12-27T14:13:57.875Z,9.33
2018-12-27T14:16:26.819Z,10.03
2018-12-27T14:18:55.754Z,9.37
2018-12-27T14:21:24.871Z,9.73
2018-12-27T14:23:53.785Z,9.33
2018-12-27T14:26:22.630Z,8.60
2018-12-27T14:28:51.535Z,9.93
2018-12-27T14:31:20.353Z,8.17
2018-12-27T14:33:49.355Z,7.93
2018-12-27T14:36:18.232Z,6.47
2018-12-27T14:38:47.282Z,8.03
2018-12-27T14:41:16.254Z,8.77
2018-12-27T14:45:52.927Z,8.50
2018-12-27T14:48:21.894Z,9.10
2018-12-27T14:50:50.834Z,9.67
2018-12-27T14:53:19.715Z,8.47
2018-12-27T14:55:49.603Z,8.97
2018-12-27T14:58:18.587Z,8.73
2018-12-27T15:00:47.482Z,9.47
2018-12-27T15:03:16.306Z,10.50
2018-12-27T15:05:45.143Z,9.40
2018-12-27T15:08:14.083Z,8.50
2018-12-27T15:10:42.926Z,9.77
2018-12-27T15:13:11.783Z,9.13
2018-12-27T15:15:40.647Z,10.60
2018-12-27T15:18:09.515Z,9.40
2018-12-27T15:20:38.514Z,9.97
2018-12-27T15:23:07.414Z,9.37
2018-12-27T15:25:36.356Z,10.47
2018-12-27T15:28:05.268Z,8.97
2018-12-27T15:30:34.195Z,7.77
2018-12-27T15:33:03.039Z,11.03
2018-12-27T15:35:32.035Z,9.80
2018-12-27T15:38:01.011Z,10.23
2018-12-27T15:40:29.983Z,11.20
2018-12-27T15:42:58.923Z,9.80
2018-12-27T15:45:27.883Z,11.60
2018-12-27T15:47:56.841Z,9.90
2018-12-27T15:50:26.076Z,11.27
2018-12-27T15:52:56.887Z,11.33
2018-12-27T15:55:25.875Z,11.87
2018-12-27T15:57:54.687Z,12.67
2018-12-27T16:00:23.628Z,12.13
2018-12-27T16:02:52.630Z,11.57
2018-12-27T16:05:21.579Z,13.20
2018-12-27T16:07:50.500Z,12.67
2018-12-27T16:10:19.539Z,13.17
2018-12-27T16:12:48.476Z,11.87
2018-12-27T16:15:17.369Z,10.63
2018-12-27T16:17:46.347Z,13.20
2018-12-27T16:20:15.760Z,12.57
2018-12-27T16:22:44.685Z,14.17
2018-12-27T16:25:13.759Z,11.97
2018-12-27T16:27:42.764Z,12.87
2018-12-27T16:30:12.143Z,12.57
2018-12-27T16:32:41.182Z,13.13
2018-12-27T16:35:10.363Z,11.87
2018-12-27T16:37:39.588Z,12.67
2018-12-27T16:40:09.390Z,13.50
2018-12-27T16:42:38.935Z,12.77
2018-12-27T16:45:08.215Z,12.37
2018-12-27T16:47:37.440Z,12.57
2018-12-27T16:50:07.687Z,12.10
2018-12-27T16:52:36.811Z,14.13
2018-12-27T16:55:05.781Z,14.63
2018-12-27T16:57:34.754Z,11.50
2018-12-27T17:00:04.013Z,13.47
2018-12-27T17:02:33.200Z,11.50
2018-12-27T17:05:02.303Z,14.67
2018-12-27T17:07:31.423Z,16.30
2018-12-27T17:10:01.492Z,13.50
2018-12-27T17:12:30.655Z,11.70
2018-12-27T17:14:59.766Z,14.07
2018-12-27T17:17:28.814Z,14.27
2018-12-27T17:19:57.962Z,12.43
2018-12-27T17:22:27.260Z,13.50
2018-12-27T17:24:56.363Z,11.63
2018-12-27T17:27:29.531Z,13.23
2018-12-27T17:29:58.586Z,12.00
2018-12-27T17:32:27.595Z,14.43
2018-12-27T17:34:57.032Z,12.67
2018-12-27T17:37:26.293Z,13.70
2018-12-27T17:39:55.583Z,12.80
2018-12-27T17:42:24.782Z,13.40
2018-12-27T17:44:54.029Z,11.63
2018-12-27T17:47:23.335Z,12.93
2018-12-27T17:49:53.754Z,11.53
2018-12-27T17:52:30.015Z,11.70
2018-12-27T17:54:54.603Z,9.80
2018-12-27T17:57:23.899Z,12.77
2018-12-27T17:59:53.327Z,11.97
2018-12-27T18:02:22.500Z,12.00
2018-12-27T18:04:51.953Z,11.00
2018-12-27T18:07:21.238Z,12.27
2018-12-27T18:09:51.595Z,12.53
2018-12-27T18:12:21.079Z,10.63
2018-12-27T18:14:59.533Z,12.87
2018-12-27T18:17:28.935Z,11.47
2018-12-27T18:19:58.434Z,12.37
2018-12-27T18:22:27.658Z,10.90
2018-12-27T18:24:57.089Z,12.60
2018-12-27T18:27:26.475Z,12.10
2018-12-27T18:29:56.976Z,12.57
2018-12-27T18:32:26.333Z,11.33
2018-12-27T18:34:55.667Z,11.67
2018-12-27T18:37:25.039Z,13.10
2018-12-27T18:39:54.367Z,12.30
2018-12-27T18:42:23.738Z,13.03
2018-12-27T18:44:53.210Z,14.47
2018-12-27T18:47:22.608Z,12.20
2018-12-27T18:50:00.838Z,13.10
2018-12-27T18:52:33.975Z,13.30
2018-12-27T18:55:06.974Z,15.60
2018-12-27T18:57:40.259Z,13.27
2018-12-27T19:00:13.379Z,15.40
2018-12-27T19:02:46.290Z,14.77
2018-12-27T19:05:19.151Z,13.40
2018-12-27T19:07:52.107Z,13.80
2018-12-27T19:10:25.079Z,14.30
2018-12-27T19:13:10.357Z,14.60
2018-12-27T19:15:47.426Z,14.00
2018-12-27T19:18:31.843Z,15.50
2018-12-27T19:21:14.171Z,15.60
2018-12-27T19:23:47.551Z,15.40
2018-12-27T19:26:20.363Z,14.77
2018-12-27T19:28:53.847Z,16.67
2018-12-27T19:31:26.758Z,13.43
2018-12-27T19:33:59.451Z,14.67
2018-12-27T19:36:32.327Z,17.73
2018-12-27T19:39:07.057Z,15.13
2018-12-27T19:41:40.055Z,15.23
2018-12-27T19:44:12.955Z,14.77
2018-12-27T19:46:46.023Z,15.10
2018-12-27T19:49:18.995Z,16.70
2018-12-27T19:51:52.110Z,16.70
2018-12-27T19:54:31.757Z,16.33
2018-12-27T19:57:00.682Z,17.57
2018-12-27T19:59:33.786Z,19.27
2018-12-27T20:02:06.837Z,16.53
2018-12-27T20:04:39.851Z,15.63
2018-12-27T20:07:12.731Z,16.87
2018-12-27T20:09:46.167Z,16.73
2018-12-27T20:12:19.198Z,16.87
2018-12-27T20:14:52.373Z,16.93
2018-12-27T20:17:25.170Z,16.07
2018-12-27T20:19:59.141Z,18.93
2018-12-27T20:22:32.287Z,18.30
2018-12-27T20:25:06.391Z,18.20
2018-12-27T20:27:39.345Z,15.10
2018-12-27T20:30:12.320Z,14.93
2018-12-27T20:32:48.979Z,16.87
2018-12-27T20:35:21.896Z,14.50
2018-12-27T20:37:54.955Z,16.10
2018-12-27T20:40:27.923Z,16.50
2018-12-27T20:43:00.915Z,17.13
2018-12-27T20:45:34.098Z,17.13
2018-12-27T20:48:07.196Z,17.97
2018-12-27T20:50:40.161Z,16.30
2018-12-27T20:53:14.243Z,15.73
2018-12-27T20:55:47.603Z,15.27
2018-12-27T20:58:20.499Z,14.93
2018-12-27T21:00:53.678Z,16.50
2018-12-27T21:03:27.027Z,14.13
2018-12-27T21:05:59.727Z,14.67
2018-12-27T21:08:32.787Z,15.77
2018-12-27T21:11:05.839Z,14.63
2018-12-27T21:13:38.883Z,14.10
2018-12-27T21:16:12.043Z,16.03
2018-12-27T21:18:45.084Z,16.60
2018-12-27T21:21:19.120Z,14.80
2018-12-27T21:23:51.947Z,15.10
2018-12-27T21:26:28.979Z,13.80
2018-12-27T21:29:01.659Z,16.93
2018-12-27T21:31:34.717Z,14.30
2018-12-27T21:34:08.275Z,16.77
2018-12-27T21:36:40.861Z,17.50
2018-12-27T21:39:13.885Z,16.00
2018-12-27T21:41:47.164Z,17.20
2018-12-27T21:44:20.862Z,13.77
2018-12-27T21:46:54.335Z,15.60
2018-12-27T21:49:28.319Z,14.90
2018-12-27T21:52:01.382Z,18.23
2018-12-27T21:54:34.174Z,16.30
2018-12-27T21:57:07.418Z,17.80
2018-12-27T21:59:41.107Z,14.93
2018-12-27T22:02:14.326Z,17.20
2018-12-27T22:04:51.761Z,16.20
2018-12-27T22:07:25.259Z,18.70
2018-12-27T22:09:58.278Z,16.90
2018-12-27T22:12:31.055Z,15.10
2018-12-27T22:15:03.826Z,17.30
2018-12-27T22:17:36.743Z,16.07
2018-12-27T22:20:09.647Z,17.23
2018-12-27T22:22:42.787Z,16.17
2018-12-27T22:25:15.959Z,17.37
2018-12-27T22:27:49.174Z,14.10
2018-12-27T22:30:21.936Z,16.70
2018-12-27T22:32:58.992Z,16.00
2018-12-27T22:35:31.702Z,17.63
2018-12-27T22:38:05.059Z,18.33
2018-12-27T22:40:37.583Z,19.37
2018-12-27T22:43:10.687Z,15.97
2018-12-27T22:45:43.818Z,15.17
2018-12-27T22:48:16.926Z,17.77
2018-12-27T22:50:49.922Z,17.90
2018-12-27T22:53:22.979Z,17.10
2018-12-27T22:55:57.468Z,17.83
2018-12-27T22:58:31.087Z,17.30
2018-12-27T23:01:03.847Z,17.10
2018-12-27T23:03:36.875Z,15.67
2018-12-27T23:06:09.738Z,16.80
2018-12-27T23:08:43.427Z,18.00
2018-12-27T23:11:17.199Z,15.90
2018-12-27T23:13:49.881Z,16.20
2018-12-27T23:16:22.238Z,16.37
2018-12-27T23:18:55.094Z,18.67
2018-12-27T23:21:31.193Z,17.37
2018-12-27T23:24:04.271Z,16.50
2018-12-27T23:26:36.939Z,15.87
2018-12-27T23:29:10.002Z,16.37
2018-12-27T23:31:42.243Z,17.37
2018-12-27T23:34:15.172Z,16.57
2018-12-27T23:36:48.215Z,17.40
2018-12-27T23:39:20.478Z,17.23
2018-12-27T23:41:53.431Z,18.40
2018-12-27T23:44:26.355Z,18.30
2018-12-27T23:46:59.275Z,16.30
2018-12-27T23:49:32.270Z,14.90
2018-12-27T23:52:03.168Z,16.50
2018-12-27T23:54:39.295Z,16.30
2018-12-27T23:57:11.579Z,16.13
2018-12-27T23:59:44.710Z,15.73
